Weather observations for the past three days for
Brooks Field Airport
Imperial (Metric)
Date Time (edt) Wind (mph) Vis. (mi.) Weather Sky Cond. Temperature (ºF) Relative Humidity Wind Chill (°F) Heat Index (°F) Pressure Precipitation (in)
Air Dwpt 6 hour altimeter (in) sea level (mb) 1 hr 3 hr 6 hr
Max. Min.
02 08:56 W 3 10.00 Fair CLR 77 73.4 89% 78 29.99 0.0
02 08:35 W 3 10.00 Fair CLR 75.2 73.4 94% 74 30 0.0
02 08:15 Calm 4.00 Fog/Mist CLR 73.4 73.4 100% 30 0.0
02 07:55 N 2 2.00 Fog/Mist CLR 69.8 69.8 77.9 68.4 100% 29.99 0.0
02 07:35 Calm 3.00 Fog/Mist CLR 71.6 71.6 100% 29.99 0.0
02 07:15 S 2 4.00 Fog/Mist CLR 69.8 69.8 100% 29.99 0.0
02 06:55 S 2 0.15 Fog VV000 69.8 69.8 100% 29.99 0.0
02 06:36 Calm 0.25 Fog VV002 69.8 69.8 100% 30 0.0
02 06:15 W 1 1.75 Fog/Mist CLR 73.4 71.6 94% 29.99 0.0
02 05:55 W 3 8.00 Fair CLR 73.4 71.6 94% 29.99 0.0
02 05:35 W 3 7.00 Fair CLR 73.4 73.4 100% 29.99 0.0
02 05:15 SW 3 9.00 Fair CLR 73.4 73.4 100% 29.98 0.0
02 04:55 W 3 9.00 Fair CLR 75.2 73.4 94% 74 29.98 0.0
02 04:35 W 5 10.00 Fair CLR 75.2 73.4 94% 74 29.97 0.0
02 04:16 W 5 10.00 Fair CLR 75.2 73.4 94% 74 29.97 0.0
02 03:55 W 5 10.00 A Few Clouds FEW120 77 75.2 94% 78 29.98 0.0
02 03:35 SW 5 10.00 Mostly Cloudy BKN120 77 75.2 94% 78 29.98 0.0
02 03:15 SW 6 10.00 A Few Clouds FEW110 77 75.2 94% 78 29.97 0.0
02 02:55 SW 6 10.00 Fair CLR 77 75.2 94% 78 29.97 0.0
02 02:35 SW 5 10.00 Fair CLR 77 75.2 94% 78 29.97 0.0
02 02:15 SW 3 10.00 Fair CLR 77 75.2 94% 78 29.97 0.0
02 01:56 SW 5 10.00 Fair CLR 78.8 75.2 89% 82 29.97 0.0
02 01:35 SW 6 10.00 Partly Cloudy SCT100 78.8 75.2 89% 82 29.97 0.0
02 01:15 SW 5 10.00 A Few Clouds FEW100 77 75.2 94% 78 29.98 0.0
02 00:55 SW 3 10.00 A Few Clouds FEW110 77 75.2 94% 78 29.98 0.0 0.01
02 00:35 W 5 10.00 A Few Clouds FEW120 77 75.2 94% 78 29.98 0.0
02 00:15 SW 5 10.00 Partly Cloudy SCT120 77 75.2 94% 78 29.97 0.0
01 23:55 Vrbl 2 10.00 A Few Clouds FEW110 77 75.2 94% 78 29.97 0.0
01 23:36 S 2 8.00 A Few Clouds FEW110 75.2 75.2 100% 73 29.97 0.0
01 23:15 S 2 0.50 Fog VV005 73.4 71.6 94% 29.97 0.0
01 22:55 SE 1 0.50 Fog VV002 73.4 73.4 100% 29.97 0.0
01 22:35 NW 1 2.50 Fog/Mist CLR 73.4 73.4 100% 29.98 0.0
01 22:15 Calm 4.00 Fog/Mist CLR 75.2 73.4 94% 74 29.97 0.0
01 21:55 W 1 10.00 Fair CLR 77 73.4 89% 78 29.96 0.0 0.05
01 21:35 S 5 10.00 Light Rain FEW085 FEW110 75.2 73.4 94% 74 29.95 0.0
01 21:16 S 5 6.00 Light Rain Fog/Mist SCT070 BKN085 BKN110 75.2 73.4 94% 74 29.97 0.0
01 20:55 W 2 10.00 Light Rain FEW050 SCT085 BKN110 75.2 73.4 94% 74 29.97 0.0
01 20:35 SW 3 10.00 Light Rain FEW050 FEW080 SCT110 75.2 71.6 89% 75 29.98 0.0
01 20:15 SW 3 10.00 A Few Clouds FEW110 77 73.4 89% 78 29.98 0.0
01 19:55 S 2 10.00 Light Rain FEW085 FEW110 77 71.6 89.6 77.4 83% 78 29.98 0.0
01 19:35 S 5 10.00 Fair CLR 77 71.6 83% 78 29.97 0.0
01 19:15 S 3 10.00 A Few Clouds FEW110 78.8 71.6 79% 82 29.98 0.0
01 18:56 W 2 10.00 A Few Clouds FEW110 80.6 71.6 74% 85 29.99 0.0
01 18:35 W 3 10.00 A Few Clouds FEW110 80.6 71.6 74% 85 30 0.0
01 18:15 W 6 10.00 A Few Clouds FEW100 FEW120 80.6 69.8 70% 84 29.99 0.0
01 17:55 W 6 10.00 Fair CLR 78.8 69.8 74% 81 29.99 0.0
01 17:35 W 8 10.00 Fair CLR 80.6 71.6 74% 85 29.99 0.0
01 17:15 W 7 10.00 Fair CLR 80.6 73.4 79% 85 29.97 0.0
01 16:55 W 7 10.00 Fair CLR 80.6 73.4 79% 85 29.97 0.0
01 16:36 SW 5 10.00 Fair CLR 80.6 75.2 84% 86 29.96 0.0
01 16:15 SW 8 10.00 A Few Clouds FEW046 FEW060 80.6 75.2 84% 86 29.96 0.0
01 15:55 SW 10 10.00 Fair CLR 82.4 75.2 79% 89 29.98 0.0
01 15:35 Vrbl 7 10.00 Fair CLR 84.2 75.2 74% 92 29.97 0.0
01 15:15 SW 10 10.00 A Few Clouds FEW027 FEW033 FEW055 86 75.2 70% 95 29.99 0.0
01 14:55 SW 12 10.00 A Few Clouds FEW030 FEW110 89.6 77 67% 103 29.99 0.0
01 14:35 SW 13 10.00 Partly Cloudy FEW029 SCT110 86 75.2 70% 95 29.99 0.0
01 14:16 W 10 10.00 A Few Clouds FEW029 89.6 77 67% 103 29.99 0.0
01 13:55 W 12 10.00 Partly Cloudy SCT029 SCT034 87.8 75.2 88.5 71.4 66% 98 29.99 0.0
01 13:35 W 10 10.00 Partly Cloudy SCT027 SCT034 87.8 75.2 66% 98 29.98 0.0
01 13:15 Vrbl 6 10.00 A Few Clouds FEW027 86 75.2 70% 95 29.98 0.0
01 12:55 SW 8 10.00 Fair CLR 86 75.2 70% 95 29.98 0.0
01 12:35 Vrbl 6 10.00 Fair CLR 84.2 75.2 74% 92 29.98 0.0
01 12:15 S 7 10.00 Fair CLR 84.2 73.4 70% 91 29.98 0.0
01 11:56 SW 8 10.00 Fair CLR 84.2 75.2 74% 92 29.99 0.0
01 11:35 SW 6 10.00 Fair CLR 82.4 73.4 74% 88 29.99 0.0
01 11:15 W 5 10.00 Fair CLR 82.4 73.4 74% 88 29.99 0.0
01 10:55 W 8 10.00 Fair CLR 80.6 73.4 79% 85 29.99 0.0
01 10:35 SW 7 10.00 Fair CLR 80.6 71.6 74% 85 29.99 0.0
01 10:15 W 6 10.00 A Few Clouds FEW120 78.8 71.6 79% 82 30 0.0
01 09:55 SW 6 10.00 Fair CLR 78.8 69.8 74% 81 29.99 0.0
01 09:36 W 8 10.00 Fair CLR 77 69.8 79% 79 29.99 0.0
01 09:15 SW 7 10.00 Fair CLR 77 69.8 79% 79 29.99 0.0
01 08:55 W 6 10.00 Fair CLR 75.2 69.8 83% 75 30 0.0
01 08:35 SW 7 10.00 Fair CLR 75.2 69.8 83% 75 30 0.0
01 08:15 Vrbl 2 10.00 Fair CLR 73.4 68 83% 29.99 0.0
01 07:55 Vrbl 1 10.00 Fair CLR 71.6 68 72.3 66.4 88% 29.98 0.0
01 07:35 Vrbl 2 10.00 Fair CLR 71.6 68 88% 29.98 0.0
01 07:16 SW 3 10.00 Fair CLR 71.6 68 88% 29.98 0.0
01 06:55 SW 3 10.00 Fair CLR 71.6 68 88% 29.98 0.0
01 06:35 SW 3 10.00 Fair CLR 69.8 68 94% 29.97 0.0
01 06:15 S 2 10.00 Fair CLR 68 66.2 94% 29.97 0.0
01 05:35 S 2 9.00 Fair CLR 68 68 100% 29.97 0.0
01 05:15 S 2 8.00 Fair CLR 68 66.2 94% 29.97 0.0
01 04:56 SE 1 3.00 Fog/Mist CLR 68 68 100% 29.97 0.0
01 04:35 SE 1 2.00 Fog/Mist CLR 66.2 66.2 100% 29.96 0.0
01 04:15 SE 1 0.50 Fog VV005 68 66.2 94% 29.96 0.0
01 03:55 SE 1 0.75 Fog/Mist VV005 68 68 100% 29.96 0.0
01 03:35 SE 1 1.75 Fog/Mist CLR 68 68 100% 29.96 0.0
01 03:15 Calm 0.75 Fog/Mist VV005 68 68 100% 29.97 0.0
01 02:55 NE 1 5.00 Fog/Mist CLR 69.8 68 94% 29.96 0.0
01 02:36 NW 1 8.00 Fair CLR 69.8 69.8 100% 29.96 0.0
01 02:15 W 2 10.00 Fair CLR 71.6 69.8 94% 29.96 0.0
01 01:55 SW 2 10.00 Fair CLR 71.6 69.8 76.8 72 94% 29.96 0.0
01 01:35 SW 2 10.00 Fair CLR 73.4 69.8 89% 29.97 0.0
01 01:15 SW 3 10.00 Fair CLR 75.2 69.8 83% 75 29.97 0.0
01 00:55 SW 3 10.00 Fair CLR 75.2 69.8 83% 75 29.97 0.0
01 00:35 SW 6 10.00 Fair CLR 75.2 69.8 83% 75 29.96 0.0
01 00:16 S 5 10.00 Fair CLR 75.2 71.6 89% 75 29.96 0.0
31 23:55 Vrbl 3 10.00 Fair CLR 77 71.6 83% 78 29.96 0.0
31 23:35 SW 5 10.00 Fair CLR 75.2 71.6 89% 75 29.96 0.0
31 23:15 Vrbl 5 10.00 Fair CLR 75.2 71.6 89% 75 29.97 0.0
31 22:55 S 3 10.00 Fair CLR 75.2 71.6 89% 75 29.97 0.0
31 22:35 SW 3 10.00 Fair CLR 75.2 71.6 89% 75 29.98 0.0
31 22:15 S 2 10.00 Fair CLR 75.2 71.6 89% 75 29.97 0.0
31 21:56 S 3 10.00 Fair CLR 75.2 71.6 89% 75 29.98 0.0
31 21:35 S 5 10.00 Fair CLR 75.2 71.6 89% 75 29.97 0.0
31 21:15 Vrbl 5 10.00 Fair CLR 75.2 71.6 89% 75 29.96 0.0
31 20:55 S 7 10.00 Fair CLR 77 69.8 79% 79 29.95 0.0
31 20:35 S 6 10.00 Fair CLR 77 69.8 79% 79 29.95 0.0
31 20:15 S 7 10.00 Fair CLR 77 69.8 79% 79 29.95 0.0
31 19:55 S 6 10.00 Fair CLR 77 68 85.1 75.7 74% 79 29.95 0.0
31 19:36 S 7 10.00 Fair CLR 77 68 74% 79 29.95 0.0
31 19:15 S 9 10.00 Fair CLR 77 68 74% 79 29.95 0.0
31 18:55 S 8 10.00 Fair CLR 77 68 74% 79 29.96 0.0
31 18:35 S 9 10.00 Fair CLR 77 68 74% 79 29.97 0.0
31 17:55 SE 12 10.00 Mostly Cloudy FEW050 SCT100 BKN120 77 71.6 83% 78 29.96 0.0 0.01
31 17:35 SE 6 10.00 Mostly Cloudy FEW035 SCT100 BKN120 77 71.6 83% 78 29.99 0.0
31 17:16 SE 8 9.00 Light Rain SCT060 SCT070 OVC100 77 69.8 79% 79 29.98 0.0
31 16:55 NE 6 7.00 Light Rain FEW021 FEW047 OVC100 78.8 69.8 74% 81 30.01 0.0
31 16:35 SE 6 10.00 Mostly Cloudy BKN100 80.6 68 66% 83 29.98 0.0
31 16:15 E 5 10.00 Overcast OVC100 80.6 68 66% 83 30 0.0
31 15:55 Vrbl 6 10.00 Overcast OVC100 82.4 64.4 55% 84 29.99 0.0
31 15:35 SW 7 10.00 Partly Cloudy SCT110 84.2 66.2 55% 87 29.98 0.0
31 15:15 S 9 10.00 Partly Cloudy SCT120 84.2 66.2 55% 87 29.98 0.0
31 14:56 S 8 10.00 Partly Cloudy SCT120 82.4 66.2 58% 85 30 0.0
31 14:35 SW 5 10.00 Fair CLR 82.4 68 62% 85 30 0.0
31 14:15 SW 10 10.00 Partly Cloudy SCT100 82.4 68 62% 85 30.01 0.0
31 13:55 SW 9 10.00 Partly Cloudy SCT110 82.4 68 81.7 71.4 62% 85 30.02 0.0
31 13:35 S 8 10.00 A Few Clouds FEW120 80.6 68 66% 83 30.02 0.0
31 13:15 S 6 10.00 A Few Clouds FEW120 77 68 74% 79 30.03 0.0
31 12:55 SW 6 10.00 A Few Clouds FEW120 78.8 68 70% 81 30.04 0.0
31 12:36 SW 6 10.00 A Few Clouds FEW110 78.8 68 70% 81 30.04 0.0
31 12:15 SW 7 10.00 Fair CLR 78.8 66.2 65% 81 30.05 0.0
31 11:55 SW 8 10.00 Fair CLR 78.8 68 70% 81 30.06 0.0
31 11:35 SW 9 10.00 Fair CLR 78.8 68 70% 81 30.07 0.0
31 11:15 W 7 10.00 Fair CLR 75.2 68 78% 76 30.06 0.0
31 10:55 Vrbl 3 10.00 A Few Clouds FEW110 75.2 68 78% 76 30.05 0.0
31 10:35 SW 5 10.00 Partly Cloudy FEW060 FEW070 SCT110 73.4 68 83% 30.04 0.0
31 10:16 SW 3 10.00 Partly Cloudy FEW048 SCT070 SCT095 73.4 68 83% 30.04 0.0
31 09:55 SW 3 10.00 A Few Clouds FEW047 FEW060 FEW120 73.4 68 83% 30.04 0.0
31 09:35 W 5 10.00 Partly Cloudy SCT110 73.4 68 83% 30.05 0.0
31 09:15 SW 3 10.00 Mostly Cloudy BKN100 73.4 68 83% 30.03 0.0
31 08:55 SW 5 10.00 Mostly Cloudy BKN100 73.4 68 83% 30.03 0.0
31 08:35 SW 3 10.00 Partly Cloudy FEW100 SCT120 71.6 68 88% 30.02 0.0
31 07:56 SW 5 10.00 Fair CLR 71.6 66.2 83% 30.02 0.0
31 07:35 S 7 10.00 Fair CLR 71.6 66.2 83% 30.01 0.0
31 07:15 S 6 10.00 A Few Clouds FEW120 71.6 66.2 83% 30.01 0.0
31 06:55 S 5 10.00 A Few Clouds FEW120 69.8 66.2 88% 30.01 0.0
31 06:35 S 5 10.00 Mostly Cloudy BKN120 69.8 66.2 88% 30.02 0.0
31 06:15 S 3 10.00 Mostly Cloudy BKN120 69.8 66.2 88% 30.02 0.0
31 05:55 S 3 10.00 Mostly Cloudy BKN120 69.8 66.2 88% 30.02 0.0
31 05:36 Vrbl 2 10.00 Overcast OVC120 69.8 66.2 88% 30.02 0.0
31 05:15 Vrbl 2 10.00 Overcast OVC110 69.8 66.2 88% 30.02 0.0
31 04:55 Vrbl 3 10.00 Overcast OVC110 69.8 66.2 88% 30.02 0.0
31 04:35 Vrbl 2 10.00 Overcast OVC100 71.6 66.2 83% 30.02 0.0
31 04:15 S 3 10.00 Mostly Cloudy BKN100 69.8 66.2 88% 30.01 0.0
31 03:55 S 5 10.00 Partly Cloudy SCT100 71.6 66.2 83% 30.01 0.0
31 03:35 S 3 10.00 Fair CLR 71.6 66.2 83% 30.01 0.0
31 03:16 S 5 10.00 Fair CLR 69.8 66.2 88% 30.01 0.0
31 02:55 S 5 10.00 A Few Clouds FEW120 71.6 66.2 83% 30.02 0.0
31 02:35 S 5 10.00 Mostly Cloudy FEW080 BKN120 71.6 66.2 83% 30.03 0.0
31 02:15 S 7 10.00 Mostly Cloudy BKN080 BKN120 73.4 68 83% 30.03 0.0
31 01:55 S 7 10.00 Overcast OVC120 73.4 68 75.6 69.6 83% 30.04 0.0
31 01:35 S 7 10.00 Overcast OVC120 73.4 68 83% 30.04 0.0
31 01:15 S 6 10.00 Overcast OVC110 73.4 66.2 78% 30.04 0.0
31 00:56 S 7 10.00 Mostly Cloudy BKN110 73.4 66.2 78% 30.04 0.0
31 00:35 S 7 10.00 Mostly Cloudy FEW080 BKN100 71.6 66.2 83% 30.03 0.0
31 00:15 S 8 10.00 Overcast FEW080 OVC110 71.6 66.2 83% 30.03 0.0
30 23:55 Vrbl 3 10.00 Mostly Cloudy BKN110 71.6 66.2 83% 30.03 0.0
30 23:35 Vrbl 2 10.00 Mostly Cloudy BKN100 69.8 64.4 83% 30.04 0.0
30 23:15 Vrbl 1 10.00 A Few Clouds FEW100 71.6 64.4 78% 30.05 0.0
30 22:55 S 3 10.00 Fair CLR 69.8 64.4 83% 30.04 0.0
30 22:36 S 3 10.00 Fair CLR 71.6 64.4 78% 30.05 0.0
30 22:15 S 5 10.00 Fair CLR 71.6 64.4 78% 30.04 0.0
30 21:55 S 3 10.00 Fair CLR 71.6 64.4 78% 30.04 0.0
30 21:35 SW 3 10.00 Fair CLR 71.6 64.4 78% 30.03 0.0
30 21:15 S 2 10.00 Fair CLR 71.6 64.4 78% 30.02 0.0
30 20:55 SW 5 10.00 Fair CLR 73.4 64.4 74% 30.02 0.0
30 20:35 SW 5 10.00 Fair CLR 73.4 64.4 74% 30.01 0.0
30 20:16 SW 6 10.00 Fair CLR 75.2 64.4 69% 77 30.01 0.0
30 19:55 SW 8 10.00 Fair CLR 75.2 64.4 81.1 72.5 69% 77 30 0.0
30 19:35 SW 12 G 17 10.00 Fair CLR 77 64.4 65% 79 30.01 0.0
30 19:15 SW 9 10.00 Fair CLR 77 66.2 69% 79 30.01 0.0
30 18:55 SW 8 10.00 Fair CLR 77 66.2 69% 79 30.01 0.0
30 18:35 SW 10 10.00 Fair CLR 77 66.2 69% 79 30.02 0.0
30 18:15 SW 8 10.00 A Few Clouds FEW075 78.8 66.2 65% 81 30.02 0.0
30 17:56 SW 9 10.00 Partly Cloudy SCT075 SCT100 SCT110 78.8 66.2 65% 81 30.03 0.0
30 17:35 SW 9 10.00 Mostly Cloudy BKN100 78.8 66.2 65% 81 30.03 0.0
30 17:15 SW 9 10.00 Mostly Cloudy BKN110 80.6 64.4 58% 82 30.03 0.0
30 16:55 SW 15 G 20 10.00 Mostly Cloudy BKN110 80.6 66.2 62% 83 30.03 0.0
30 16:35 SW 10 G 21 10.00 Mostly Cloudy BKN110 80.6 66.2 62% 83 30.03 0.0
30 16:15 SW 12 10.00 Overcast OVC110 78.8 66.2 65% 81 30.03 0.0
30 15:55 SW 10 G 17 10.00 Partly Cloudy SCT110 80.6 66.2 62% 83 30.03 0.0
30 15:36 SW 16 10.00 A Few Clouds FEW095 78.8 66.2 65% 81 30.02 0.0
30 15:15 SW 9 10.00 Mostly Cloudy BKN095 77 66.2 69% 79 30.01 0.0
30 14:55 S 14 G 18 10.00 Overcast OVC095 77 66.2 69% 79 30.02 0.0
30 14:35 SW 12 G 21 10.00 Mostly Cloudy BKN095 77 66.2 69% 79 30.02 0.0
30 14:15 S 12 G 16 9.00 Mostly Cloudy BKN095 75.2 68 78% 76 30.02 0.0
30 13:55 S 10 10.00 Overcast OVC095 73.4 66.2 72.9 64.6 78% 30.02 0.0
30 13:35 S 8 10.00 Overcast OVC095 71.6 66.2 83% 30.03 0.0
30 13:16 S 9 10.00 Mostly Cloudy BKN095 71.6 66.2 83% 30.03 0.0
30 12:55 S 8 10.00 Light Rain FEW095 FEW110 68 66.2 94% 30.03 0.0 0.01
30 12:35 S 10 10.00 Light Rain SCT046 BKN065 OVC100 68 64.4 88% 30.05 0.0
30 12:15 SW 12 10.00 Light Rain BKN045 BKN060 OVC065 68 64.4 88% 30.08 0.0
30 11:55 S 9 7.00 Light Rain SCT046 BKN060 OVC100 66.2 64.4 94% 30.07 0.0 0.04
30 11:35 S 9 7.00 Light Rain Fog/Mist OVC100 66.2 64.4 94% 30.09 0.0
30 11:15 S 8 4.00 Light Rain Fog/Mist OVC090 66.2 64.4 94% 30.11 0.0
30 10:56 S 6 2.50 Light Rain Fog/Mist OVC100 64.4 64.4 100% 30.12 0.0
30 10:35 S 5 3.00 Light Rain Fog/Mist FEW075 BKN100 OVC120 64.4 64.4 100% 30.13 0.0
30 10:15 SE 6 5.00 Light Rain Fog/Mist BKN090 BKN120 64.4 64.4 100% 30.12 0.0
30 09:55 E 3 1.75 Light Rain Fog/Mist FEW046 OVC090 64.4 64.4 100% 30.13 0.0 0.04
30 09:35 Vrbl 1 2.50 Light Rain Fog/Mist FEW060 FEW075 OVC100 64.4 64.4 100% 30.13 0.0
Date Time (edt) Wind (mph) Vis. (mi.) Weather Sky Cond. Air Dwpt Max. Min. Relative Humidity Wind Chill (°F) Heat Index (°F) altimeter (in) sea level (mb) 1 hr 3 hr 6 hr
6 hour
Temperature (ºF) Pressure Precipitation (in)